createdAt,value
2022-11-28T00:01:47.942Z,100.00
2022-11-28T00:04:17.598Z,100.00
2022-11-28T00:06:49.329Z,100.00
2022-11-28T00:09:18.730Z,100.00
2022-11-28T00:11:48.451Z,100.00
2022-11-28T00:14:17.738Z,100.00
2022-11-28T00:16:46.120Z,100.00
2022-11-28T00:19:14.906Z,100.00
2022-11-28T00:21:44.189Z,100.00
2022-11-28T00:24:12.124Z,100.00
2022-11-28T00:26:42.195Z,100.00
2022-11-28T00:29:11.498Z,100.00
2022-11-28T00:31:43.694Z,100.00
2022-11-28T00:34:13.326Z,100.00
2022-11-28T00:36:41.456Z,100.00
2022-11-28T00:39:10.888Z,100.00
2022-11-28T00:41:46.280Z,100.00
2022-11-28T00:44:14.582Z,100.00
2022-11-28T00:46:42.825Z,100.00
2022-11-28T00:49:10.795Z,100.00
2022-11-28T00:51:39.155Z,100.00
2022-11-28T00:54:10.423Z,100.00
2022-11-28T00:56:40.917Z,100.00
2022-11-28T00:59:09.164Z,100.00
2022-11-28T01:01:39.603Z,100.00
2022-11-28T01:04:10.056Z,100.00
2022-11-28T01:06:39.952Z,100.00
2022-11-28T01:09:10.489Z,100.00
2022-11-28T01:11:40.708Z,100.00
2022-11-28T01:14:09.228Z,100.00
2022-11-28T01:16:39.625Z,100.00
2022-11-28T01:19:08.116Z,100.00
2022-11-28T01:21:37.467Z,100.00
2022-11-28T01:24:06.200Z,100.00
2022-11-28T01:26:34.206Z,100.00
2022-11-28T01:29:03.496Z,100.00
2022-11-28T01:31:32.000Z,100.00
2022-11-28T01:34:00.362Z,100.00
2022-11-28T01:36:28.711Z,100.00
2022-11-28T01:38:56.636Z,100.00
2022-11-28T01:41:26.938Z,100.00
2022-11-28T01:44:35.351Z,100.00
2022-11-28T01:47:04.754Z,100.00
2022-11-28T01:49:38.318Z,100.00
2022-11-28T01:52:11.476Z,100.00
2022-11-28T01:54:42.389Z,100.00
2022-11-28T01:57:14.508Z,100.00
2022-11-28T01:59:46.558Z,100.00
2022-11-28T02:02:24.268Z,100.00
2022-11-28T02:04:53.287Z,100.00
2022-11-28T02:07:21.844Z,100.00
2022-11-28T02:09:49.769Z,100.00
2022-11-28T02:12:32.400Z,100.00
2022-11-28T02:15:15.408Z,100.00
2022-11-28T02:18:01.245Z,100.00
2022-11-28T02:21:07.165Z,100.00
2022-11-28T02:23:58.550Z,100.00
2022-11-28T02:27:11.110Z,100.00
2022-11-28T02:29:58.358Z,100.00
2022-11-28T02:33:10.758Z,100.00
2022-11-28T02:35:54.041Z,100.00
2022-11-28T02:38:29.883Z,100.00
2022-11-28T02:41:01.957Z,100.00
2022-11-28T02:43:39.942Z,100.00
2022-11-28T02:46:14.795Z,100.00
2022-11-28T02:48:49.213Z,100.00
2022-11-28T02:51:25.618Z,100.00
2022-11-28T02:53:56.219Z,100.00
2022-11-28T02:56:25.718Z,100.00
2022-11-28T02:58:54.128Z,100.00
2022-11-28T03:01:25.342Z,100.00
2022-11-28T03:04:11.967Z,100.00
2022-11-28T03:06:51.337Z,100.00
2022-11-28T03:09:48.214Z,100.00
2022-11-28T03:12:22.368Z,100.00
2022-11-28T03:14:54.111Z,100.00
2022-11-28T03:17:42.352Z,100.00
2022-11-28T03:20:21.993Z,100.00
2022-11-28T03:23:07.669Z,100.00
2022-11-28T03:25:42.248Z,100.00
2022-11-28T03:28:15.373Z,100.00
2022-11-28T03:30:48.237Z,100.00
2022-11-28T03:33:18.760Z,100.00
2022-11-28T03:35:52.502Z,100.00
2022-11-28T03:38:24.366Z,100.00
2022-11-28T03:40:56.709Z,100.00
2022-11-28T03:43:29.798Z,100.00
2022-11-28T03:46:01.429Z,100.00
2022-11-28T03:48:33.757Z,100.00
2022-11-28T03:51:06.537Z,100.00
2022-11-28T03:53:43.544Z,100.00
2022-11-28T03:56:15.830Z,100.00
2022-11-28T03:58:50.683Z,100.00
2022-11-28T04:01:31.076Z,100.00
2022-11-28T04:04:11.100Z,100.00
2022-11-28T04:06:52.847Z,100.00
2022-11-28T04:09:33.761Z,100.00
2022-11-28T04:12:08.757Z,100.00
2022-11-28T04:14:42.904Z,100.00
2022-11-28T04:17:17.522Z,100.00
2022-11-28T04:19:52.506Z,100.00
2022-11-28T04:22:25.393Z,100.00
2022-11-28T04:24:59.487Z,100.00
2022-11-28T04:27:31.422Z,100.00
2022-11-28T04:30:02.551Z,100.00
2022-11-28T04:32:34.117Z,100.00
2022-11-28T04:35:06.372Z,100.00
2022-11-28T04:37:38.346Z,100.00
2022-11-28T04:40:14.317Z,100.00
2022-11-28T04:42:51.302Z,100.00
2022-11-28T04:45:27.996Z,100.00
2022-11-28T04:47:56.500Z,100.00
2022-11-28T04:50:29.553Z,100.00
2022-11-28T04:53:03.766Z,100.00
2022-11-28T04:55:37.826Z,100.00
2022-11-28T04:58:10.845Z,100.00
2022-11-28T05:00:39.798Z,100.00
2022-11-28T05:03:09.002Z,100.00
2022-11-28T05:05:44.401Z,100.00
2022-11-28T05:08:12.538Z,100.00
2022-11-28T05:10:42.320Z,100.00
2022-11-28T05:13:10.804Z,100.00
2022-11-28T05:15:38.984Z,100.00
2022-11-28T05:18:07.247Z,100.00
2022-11-28T05:20:38.667Z,100.00
2022-11-28T05:23:06.591Z,100.00
2022-11-28T05:25:34.539Z,100.00
2022-11-28T05:28:04.047Z,100.00
2022-11-28T05:30:32.056Z,100.00
2022-11-28T05:33:00.598Z,100.00
2022-11-28T05:35:28.564Z,100.00
2022-11-28T05:37:56.485Z,100.00
2022-11-28T05:40:24.797Z,100.00
2022-11-28T05:42:52.733Z,100.00
2022-11-28T05:45:22.169Z,100.00
2022-11-28T05:47:50.336Z,100.00
2022-11-28T05:50:20.731Z,100.00
2022-11-28T05:52:48.772Z,100.00
2022-11-28T05:55:17.046Z,100.00
2022-11-28T05:57:45.046Z,100.00
2022-11-28T06:00:14.327Z,100.00
2022-11-28T06:02:43.692Z,100.00
2022-11-28T06:05:40.393Z,100.00
2022-11-28T06:07:59.777Z,100.00
2022-11-28T06:10:27.706Z,100.00
2022-11-28T06:12:55.608Z,100.00
2022-11-28T06:15:23.691Z,100.00
2022-11-28T06:17:52.937Z,100.00
2022-11-28T06:20:20.912Z,100.00
2022-11-28T06:22:49.090Z,100.00
2022-11-28T06:25:17.005Z,100.00
2022-11-28T06:27:46.736Z,100.00
2022-11-28T06:30:17.440Z,100.00
2022-11-28T06:32:45.799Z,100.00
2022-11-28T06:35:15.276Z,100.00
2022-11-28T06:37:45.111Z,100.00
2022-11-28T06:40:14.914Z,100.00
2022-11-28T06:42:42.891Z,100.00
2022-11-28T06:45:11.391Z,100.00
2022-11-28T06:47:39.295Z,100.00
2022-11-28T06:50:09.728Z,100.00
2022-11-28T06:52:39.099Z,100.00
2022-11-28T06:55:07.429Z,100.00
2022-11-28T06:57:35.639Z,100.00
2022-11-28T07:00:05.161Z,100.00
2022-11-28T07:02:34.002Z,100.00
2022-11-28T07:05:02.344Z,100.00
2022-11-28T07:07:30.469Z,100.00
2022-11-28T07:10:00.210Z,100.00
2022-11-28T07:12:28.696Z,100.00
2022-11-28T07:14:56.914Z,100.00
2022-11-28T07:17:25.140Z,100.00
2022-11-28T07:19:55.070Z,100.00
2022-11-28T07:22:24.049Z,100.00
2022-11-28T07:24:52.358Z,100.00
2022-11-28T07:27:21.745Z,100.00
2022-11-28T07:29:55.899Z,100.00
2022-11-28T07:32:24.228Z,100.00
2022-11-28T07:34:54.036Z,100.00
2022-11-28T07:37:22.229Z,100.00
2022-11-28T07:39:53.422Z,100.00
2022-11-28T07:42:24.630Z,100.00
2022-11-28T07:45:04.747Z,100.00
2022-11-28T07:47:32.795Z,100.00
2022-11-28T07:50:00.795Z,100.00
2022-11-28T07:52:28.772Z,100.00
2022-11-28T07:54:56.719Z,100.00
2022-11-28T07:57:26.329Z,100.00
2022-11-28T07:59:54.334Z,100.00
2022-11-28T08:02:22.351Z,100.00
2022-11-28T08:04:54.945Z,100.00
2022-11-28T08:07:23.553Z,100.00
2022-11-28T08:09:52.460Z,100.00
2022-11-28T08:12:20.522Z,100.00
2022-11-28T08:14:50.599Z,100.00
2022-11-28T08:17:18.861Z,100.00
2022-11-28T08:19:47.101Z,100.00
2022-11-28T08:22:15.201Z,100.00
2022-11-28T08:24:43.509Z,100.00
2022-11-28T08:27:12.328Z,100.00
2022-11-28T08:29:40.931Z,100.00
2022-11-28T08:32:20.439Z,100.00
2022-11-28T08:34:48.659Z,100.00
2022-11-28T08:37:17.439Z,100.00
2022-11-28T08:39:45.702Z,100.00
2022-11-28T08:42:13.938Z,100.00
2022-11-28T08:44:42.445Z,100.00
2022-11-28T08:47:12.304Z,100.00
2022-11-28T08:49:40.583Z,100.00
2022-11-28T08:52:09.019Z,100.00
2022-11-28T08:54:37.371Z,100.00
2022-11-28T08:57:05.614Z,100.00
2022-11-28T08:59:33.820Z,100.00
2022-11-28T09:02:01.960Z,100.00
2022-11-28T09:04:32.005Z,100.00
2022-11-28T09:07:00.108Z,100.00
2022-11-28T09:09:32.738Z,100.00
2022-11-28T09:12:01.162Z,100.00
2022-11-28T09:14:29.314Z,100.00
2022-11-28T09:16:59.965Z,100.00
2022-11-28T09:19:31.837Z,100.00
2022-11-28T09:22:02.124Z,100.00
2022-11-28T09:24:30.138Z,100.00
2022-11-28T09:26:58.085Z,100.00
2022-11-28T09:29:26.285Z,100.00
2022-11-28T09:31:54.324Z,100.00
2022-11-28T09:34:22.381Z,100.00
2022-11-28T09:36:51.680Z,100.00
2022-11-28T09:39:19.956Z,100.00
2022-11-28T09:42:13.430Z,100.00
2022-11-28T09:44:47.659Z,100.00
2022-11-28T09:47:21.080Z,100.00
2022-11-28T09:49:53.044Z,100.00
2022-11-28T09:52:34.889Z,100.00
2022-11-28T09:55:16.907Z,100.00
2022-11-28T09:57:48.334Z,100.00
2022-11-28T10:00:18.708Z,100.00
2022-11-28T10:03:02.627Z,100.00
2022-11-28T10:05:37.080Z,100.00
2022-11-28T10:08:20.767Z,100.00
2022-11-28T10:10:58.791Z,100.00
2022-11-28T10:14:05.951Z,100.00
2022-11-28T10:16:36.377Z,100.00
2022-11-28T10:19:25.561Z,100.00
2022-11-28T10:22:02.687Z,100.00
2022-11-28T10:24:38.400Z,100.00
2022-11-28T10:27:12.112Z,100.00
2022-11-28T10:29:49.007Z,100.00
2022-11-28T10:32:21.599Z,100.00
2022-11-28T10:34:59.528Z,100.00
2022-11-28T10:37:29.870Z,100.00
2022-11-28T10:40:13.770Z,100.00
2022-11-28T10:42:47.332Z,100.00
2022-11-28T10:45:24.312Z,100.00
2022-11-28T10:48:37.065Z,100.00
2022-11-28T10:51:02.125Z,100.00
2022-11-28T10:53:42.859Z,100.00
2022-11-28T10:56:25.227Z,100.00
2022-11-28T10:58:59.527Z,100.00
2022-11-28T11:01:30.974Z,100.00
2022-11-28T11:03:59.605Z,100.00
2022-11-28T11:06:40.893Z,100.00
2022-11-28T11:09:34.377Z,100.00
2022-11-28T11:12:06.352Z,100.00
2022-11-28T11:14:36.833Z,100.00
2022-11-28T11:17:08.099Z,100.00
2022-11-28T11:19:38.682Z,100.00
2022-11-28T11:22:21.133Z,100.00
2022-11-28T11:25:06.790Z,100.00
2022-11-28T11:27:37.673Z,100.00
2022-11-28T11:30:18.814Z,100.00
2022-11-28T11:32:51.589Z,100.00
2022-11-28T11:35:22.797Z,100.00
2022-11-28T11:37:50.951Z,100.00
2022-11-28T11:40:23.735Z,100.00
2022-11-28T11:42:57.229Z,100.00
2022-11-28T11:45:29.256Z,100.00
2022-11-28T11:47:57.550Z,100.00
2022-11-28T11:50:28.035Z,100.00
2022-11-28T11:53:07.746Z,99.90
2022-11-28T11:55:45.675Z,99.16
2022-11-28T11:58:21.893Z,97.90
2022-11-28T12:00:53.259Z,98.29
2022-11-28T12:03:30.687Z,97.72
2022-11-28T12:06:17.850Z,98.13
2022-11-28T12:08:51.651Z,97.56
2022-11-28T12:11:26.136Z,96.88
2022-11-28T12:13:58.370Z,96.78
2022-11-28T12:16:45.691Z,96.55
2022-11-28T12:19:24.755Z,95.98
2022-11-28T12:22:06.207Z,97.13
2022-11-28T12:24:42.670Z,96.67
2022-11-28T12:27:26.824Z,96.80
2022-11-28T12:30:06.184Z,96.34
2022-11-28T12:32:47.000Z,96.61
2022-11-28T12:35:28.086Z,96.87
2022-11-28T12:38:11.451Z,97.30
2022-11-28T12:40:51.204Z,97.83
2022-11-28T12:43:34.447Z,96.10
2022-11-28T12:46:12.320Z,96.64
2022-11-28T12:48:57.468Z,97.40
2022-11-28T12:51:35.419Z,98.20
2022-11-28T12:54:16.277Z,98.45
2022-11-28T12:56:58.986Z,99.93
2022-11-28T12:59:41.345Z,100.00
2022-11-28T13:02:26.344Z,100.00
2022-11-28T13:05:07.165Z,100.00
2022-11-28T13:07:44.480Z,100.00
2022-11-28T13:10:24.510Z,100.00
2022-11-28T13:12:59.182Z,100.00
2022-11-28T13:15:47.644Z,100.00
2022-11-28T13:18:30.488Z,100.00
2022-11-28T13:21:08.014Z,100.00
2022-11-28T13:23:45.242Z,100.00
2022-11-28T13:26:24.051Z,100.00
2022-11-28T13:29:00.245Z,100.00
2022-11-28T13:31:35.829Z,100.00
2022-11-28T13:34:05.991Z,100.00
2022-11-28T13:39:43.282Z,100.00
2022-11-28T13:45:32.746Z,100.00
2022-11-28T13:48:01.325Z,100.00
2022-11-28T13:50:40.574Z,100.00
2022-11-28T13:53:25.790Z,100.00
2022-11-28T13:56:16.531Z,100.00
2022-11-28T13:58:52.062Z,100.00
2022-11-28T14:01:22.416Z,100.00
2022-11-28T14:03:53.899Z,100.00
2022-11-28T14:06:26.561Z,100.00
2022-11-28T14:09:08.176Z,100.00
2022-11-28T14:12:12.379Z,100.00
2022-11-28T14:15:09.185Z,100.00
2022-11-28T14:18:00.740Z,100.00
2022-11-28T14:20:39.280Z,100.00
2022-11-28T14:23:26.281Z,100.00
2022-11-28T14:25:55.615Z,100.00
2022-11-28T14:28:28.669Z,100.00
2022-11-28T14:31:05.149Z,100.00
2022-11-28T14:33:39.009Z,100.00
2022-11-28T14:36:24.785Z,100.00
2022-11-28T14:39:36.096Z,100.00
2022-11-28T14:45:44.699Z,100.00
2022-11-28T14:48:20.811Z,100.00
2022-11-28T14:50:59.031Z,100.00
2022-11-28T14:53:53.070Z,100.00
2022-11-28T14:56:28.980Z,100.00
2022-11-28T14:58:59.837Z,100.00
2022-11-28T15:01:45.623Z,100.00
2022-11-28T15:04:54.847Z,100.00
2022-11-28T15:07:34.204Z,100.00
2022-11-28T15:10:10.210Z,100.00
2022-11-28T15:12:51.900Z,100.00
2022-11-28T15:15:22.816Z,100.00
2022-11-28T15:17:54.478Z,100.00
2022-11-28T15:20:29.302Z,100.00
2022-11-28T15:22:58.086Z,100.00
2022-11-28T15:25:29.494Z,100.00
2022-11-28T15:28:14.404Z,100.00
2022-11-28T15:30:46.644Z,100.00
2022-11-28T15:33:16.179Z,100.00
2022-11-28T15:35:56.156Z,100.00
2022-11-28T15:38:24.885Z,100.00
2022-11-28T15:40:54.778Z,100.00
2022-11-28T15:43:26.427Z,100.00
2022-11-28T15:45:58.700Z,100.00
2022-11-28T15:48:28.944Z,100.00
2022-11-28T15:50:57.413Z,100.00
2022-11-28T15:53:29.795Z,100.00
2022-11-28T15:56:11.980Z,100.00
2022-11-28T15:58:42.166Z,100.00
2022-11-28T16:01:19.123Z,100.00
2022-11-28T16:03:53.531Z,100.00
2022-11-28T16:06:24.440Z,100.00
2022-11-28T16:08:55.990Z,100.00
2022-11-28T16:11:26.006Z,100.00
2022-11-28T16:13:58.514Z,100.00
2022-11-28T16:16:29.873Z,100.00
2022-11-28T16:19:00.522Z,100.00
2022-11-28T16:21:33.340Z,100.00
2022-11-28T16:24:02.202Z,100.00
2022-11-28T16:26:33.850Z,100.00
2022-11-28T16:29:13.429Z,100.00
2022-11-28T16:31:43.371Z,100.00
2022-11-28T16:34:14.687Z,100.00
2022-11-28T16:36:45.781Z,100.00
2022-11-28T16:39:18.311Z,100.00
2022-11-28T16:41:51.978Z,100.00
2022-11-28T16:44:25.890Z,100.00
2022-11-28T16:46:56.255Z,100.00
2022-11-28T16:49:34.778Z,100.00
2022-11-28T16:52:57.597Z,100.00
2022-11-28T16:55:47.853Z,100.00
2022-11-28T16:58:25.262Z,100.00
2022-11-28T17:01:01.802Z,100.00
2022-11-28T17:03:51.408Z,100.00
2022-11-28T17:06:22.673Z,100.00
2022-11-28T17:08:51.197Z,100.00
2022-11-28T17:11:23.197Z,100.00
2022-11-28T17:13:52.428Z,100.00
2022-11-28T17:16:25.989Z,100.00
2022-11-28T17:18:55.138Z,100.00
2022-11-28T17:21:32.365Z,100.00
2022-11-28T17:24:00.986Z,100.00
2022-11-28T17:26:29.871Z,100.00
2022-11-28T17:28:59.067Z,100.00
2022-11-28T17:31:31.469Z,100.00
2022-11-28T17:33:59.539Z,100.00
2022-11-28T17:36:27.557Z,100.00
2022-11-28T17:38:56.492Z,100.00
2022-11-28T17:41:26.908Z,100.00
2022-11-28T17:43:54.904Z,100.00
2022-11-28T17:46:23.320Z,100.00
2022-11-28T17:48:53.151Z,100.00
2022-11-28T17:51:21.452Z,100.00
2022-11-28T17:53:50.656Z,100.00
2022-11-28T17:56:18.917Z,100.00
2022-11-28T17:58:47.002Z,100.00
2022-11-28T18:01:19.013Z,100.00
2022-11-28T18:03:47.254Z,100.00
2022-11-28T18:06:18.404Z,100.00
2022-11-28T18:08:47.462Z,100.00
2022-11-28T18:11:16.293Z,100.00
2022-11-28T18:13:46.512Z,100.00
2022-11-28T18:16:17.448Z,100.00
2022-11-28T18:18:46.285Z,100.00
2022-11-28T18:21:15.115Z,100.00
2022-11-28T18:23:50.697Z,100.00
2022-11-28T18:26:22.826Z,100.00
2022-11-28T18:28:51.841Z,100.00
2022-11-28T18:31:22.947Z,100.00
2022-11-28T18:33:51.861Z,100.00
2022-11-28T18:36:25.473Z,100.00
2022-11-28T18:38:57.732Z,100.00
2022-11-28T18:41:26.204Z,100.00
2022-11-28T18:43:56.000Z,100.00
2022-11-28T18:46:27.072Z,100.00
2022-11-28T18:48:55.090Z,100.00
2022-11-28T18:51:27.329Z,100.00
2022-11-28T18:53:58.115Z,100.00
2022-11-28T18:56:29.305Z,100.00
2022-11-28T18:58:59.362Z,100.00
2022-11-28T19:01:32.464Z,100.00
2022-11-28T19:04:01.864Z,100.00
2022-11-28T19:06:30.578Z,100.00
2022-11-28T19:09:01.745Z,100.00
2022-11-28T19:11:30.737Z,100.00
2022-11-28T19:14:01.304Z,100.00
2022-11-28T19:16:35.234Z,100.00
2022-11-28T19:19:04.295Z,100.00
2022-11-28T19:21:36.995Z,100.00
2022-11-28T19:24:08.762Z,100.00
2022-11-28T19:26:44.815Z,100.00
2022-11-28T19:29:15.999Z,100.00
2022-11-28T19:31:44.348Z,100.00
2022-11-28T19:34:14.495Z,100.00
2022-11-28T19:36:44.862Z,100.00
2022-11-28T19:39:17.994Z,100.00
2022-11-28T19:41:47.421Z,100.00
2022-11-28T19:44:16.763Z,100.00
2022-11-28T19:46:45.815Z,100.00
2022-11-28T19:49:19.072Z,100.00
2022-11-28T19:51:51.660Z,100.00
2022-11-28T19:54:21.958Z,100.00
2022-11-28T19:56:51.050Z,100.00
2022-11-28T19:59:19.924Z,100.00
2022-11-28T20:01:50.051Z,100.00
2022-11-28T20:04:22.500Z,100.00
2022-11-28T20:06:50.801Z,100.00
2022-11-28T20:09:19.235Z,100.00
2022-11-28T20:11:50.446Z,100.00
2022-11-28T20:14:20.788Z,100.00
2022-11-28T20:16:49.417Z,100.00
2022-11-28T20:19:26.450Z,100.00
2022-11-28T20:21:56.425Z,100.00
2022-11-28T20:24:24.600Z,100.00
2022-11-28T20:26:54.214Z,100.00
2022-11-28T20:29:26.727Z,100.00
2022-11-28T20:31:56.968Z,100.00
2022-11-28T20:34:25.556Z,100.00
2022-11-28T20:36:54.427Z,100.00
2022-11-28T20:39:23.127Z,100.00
2022-11-28T20:41:51.639Z,100.00
2022-11-28T20:44:21.246Z,100.00
2022-11-28T20:46:51.283Z,100.00
2022-11-28T20:49:20.117Z,100.00
2022-11-28T20:51:51.394Z,100.00
2022-11-28T20:54:20.290Z,100.00
2022-11-28T20:59:39.956Z,100.00
2022-11-28T21:02:10.085Z,100.00
2022-11-28T21:04:38.485Z,100.00
2022-11-28T21:07:08.440Z,100.00
2022-11-28T21:09:39.543Z,100.00
2022-11-28T21:12:08.365Z,100.00
2022-11-28T21:14:42.266Z,100.00
2022-11-28T21:17:10.615Z,100.00
2022-11-28T21:19:39.058Z,100.00
2022-11-28T21:22:07.297Z,100.00
2022-11-28T21:24:35.446Z,100.00
2022-11-28T21:27:04.162Z,100.00
2022-11-28T21:29:32.380Z,100.00
2022-11-28T21:32:02.122Z,100.00
2022-11-28T21:34:30.294Z,100.00
2022-11-28T21:36:58.224Z,100.00
2022-11-28T21:39:29.198Z,100.00
2022-11-28T21:41:57.111Z,100.00
2022-11-28T21:44:25.391Z,100.00
2022-11-28T21:46:56.439Z,100.00
2022-11-28T21:49:25.838Z,100.00
2022-11-28T21:51:55.068Z,100.00
2022-11-28T21:54:26.647Z,100.00
2022-11-28T21:56:54.800Z,100.00
2022-11-28T21:59:22.894Z,100.00
2022-11-28T22:01:51.231Z,100.00
2022-11-28T22:04:21.975Z,100.00
2022-11-28T22:06:54.071Z,100.00
2022-11-28T22:09:25.127Z,100.00
2022-11-28T22:11:53.830Z,100.00
2022-11-28T22:14:21.987Z,100.00
2022-11-28T22:16:50.021Z,100.00
2022-11-28T22:19:18.478Z,100.00
2022-11-28T22:21:55.500Z,100.00
2022-11-28T22:24:27.720Z,100.00
2022-11-28T22:26:56.407Z,100.00
2022-11-28T22:29:25.153Z,100.00
2022-11-28T22:31:54.209Z,100.00
2022-11-28T22:34:24.742Z,100.00
2022-11-28T22:36:52.874Z,100.00
2022-11-28T22:39:23.340Z,100.00
2022-11-28T22:41:52.759Z,100.00
2022-11-28T22:44:22.007Z,100.00
2022-11-28T22:46:50.334Z,100.00
2022-11-28T22:49:19.541Z,100.00
2022-11-28T22:51:48.143Z,100.00
2022-11-28T22:54:16.093Z,100.00
2022-11-28T22:56:44.595Z,100.00
2022-11-28T22:59:15.689Z,100.00
2022-11-28T23:01:44.230Z,100.00
2022-11-28T23:04:12.687Z,100.00
2022-11-28T23:06:40.773Z,100.00
2022-11-28T23:09:11.344Z,100.00
2022-11-28T23:11:40.748Z,100.00
2022-11-28T23:14:10.375Z,100.00
2022-11-28T23:16:41.329Z,100.00
2022-11-28T23:19:12.490Z,100.00
2022-11-28T23:21:42.225Z,100.00
2022-11-28T23:24:14.181Z,100.00
2022-11-28T23:26:42.233Z,100.00
2022-11-28T23:29:10.740Z,100.00
2022-11-28T23:31:41.750Z,100.00
2022-11-28T23:34:11.749Z,100.00
2022-11-28T23:36:42.905Z,100.00
2022-11-28T23:39:13.424Z,100.00
2022-11-28T23:41:42.004Z,100.00
2022-11-28T23:44:11.610Z,100.00
2022-11-28T23:46:41.751Z,100.00
2022-11-28T23:49:10.241Z,100.00
2022-11-28T23:51:40.009Z,100.00
2022-11-28T23:54:08.376Z,100.00
2022-11-28T23:56:37.504Z,100.00
2022-11-28T23:59:08.567Z,100.00
